createdAt,value
2022-08-17T00:02:25.160Z,7.53
2022-08-17T00:04:53.951Z,7.70
2022-08-17T00:07:20.683Z,7.70
2022-08-17T00:09:47.257Z,9.10
2022-08-17T00:12:42.907Z,7.60
2022-08-17T00:15:01.132Z,7.00
2022-08-17T00:17:27.863Z,7.60
2022-08-17T00:19:54.459Z,7.37
2022-08-17T00:22:32.892Z,9.03
2022-08-17T00:25:05.418Z,7.87
2022-08-17T00:27:32.146Z,9.07
2022-08-17T00:29:58.743Z,8.50
2022-08-17T00:33:15.191Z,9.13
2022-08-17T00:35:15.972Z,8.63
2022-08-17T00:37:42.557Z,7.47
2022-08-17T00:40:12.049Z,7.40
2022-08-17T00:42:38.980Z,8.93
2022-08-17T00:45:08.005Z,7.30
2022-08-17T00:47:34.634Z,7.37
2022-08-17T00:50:01.620Z,9.00
2022-08-17T00:52:33.343Z,8.03
2022-08-17T00:55:01.365Z,7.63
2022-08-17T00:57:34.940Z,7.93
2022-08-17T01:00:09.181Z,8.90
2022-08-17T01:02:41.747Z,8.53
2022-08-17T01:05:16.276Z,9.37
2022-08-17T01:07:46.601Z,7.07
2022-08-17T01:10:58.954Z,7.50
2022-08-17T01:13:04.551Z,8.40
2022-08-17T01:15:34.487Z,7.23
2022-08-17T01:18:01.322Z,7.40
2022-08-17T01:20:28.022Z,7.77
2022-08-17T01:22:54.908Z,7.43
2022-08-17T01:25:22.164Z,6.57
2022-08-17T01:27:49.580Z,8.30
2022-08-17T01:30:57.975Z,8.57
2022-08-17T01:33:04.311Z,7.57
2022-08-17T01:35:31.239Z,7.90
2022-08-17T01:37:57.846Z,7.43
2022-08-17T01:40:43.090Z,8.27
2022-08-17T01:43:22.595Z,7.30
2022-08-17T01:46:02.697Z,8.10
2022-08-17T01:48:33.134Z,7.83
2022-08-17T01:50:59.955Z,10.67
2022-08-17T01:53:32.520Z,8.27
2022-08-17T01:56:12.463Z,8.37
2022-08-17T01:58:40.575Z,9.70
2022-08-17T02:01:08.488Z,8.10
2022-08-17T02:03:36.907Z,8.87
2022-08-17T02:06:05.401Z,7.30
2022-08-17T02:08:38.911Z,7.67
2022-08-17T02:11:22.512Z,7.80
2022-08-17T02:13:57.937Z,8.13
2022-08-17T02:16:29.607Z,7.93
2022-08-17T02:19:07.510Z,9.43
2022-08-17T02:21:35.362Z,9.40
2022-08-17T02:24:02.901Z,8.43
2022-08-17T02:26:29.941Z,7.30
2022-08-17T02:28:56.514Z,8.03
2022-08-17T02:31:23.482Z,7.43
2022-08-17T02:34:00.373Z,7.90
2022-08-17T02:36:31.274Z,7.70
2022-08-17T02:38:58.583Z,8.60
2022-08-17T02:41:25.450Z,7.97
2022-08-17T02:43:53.116Z,7.70
2022-08-17T02:46:19.746Z,7.53
2022-08-17T02:48:46.448Z,7.47
2022-08-17T02:51:13.073Z,7.87
2022-08-17T02:53:39.667Z,7.73
2022-08-17T02:56:06.643Z,7.70
2022-08-17T02:58:35.032Z,8.20
2022-08-17T03:01:06.458Z,8.17
2022-08-17T03:03:33.755Z,13.77
2022-08-17T03:06:01.105Z,9.10
2022-08-17T03:08:27.719Z,9.23
2022-08-17T03:10:54.357Z,8.20
2022-08-17T03:13:21.591Z,9.47
2022-08-17T03:15:49.446Z,7.93
2022-08-17T03:18:24.710Z,11.60
2022-08-17T03:20:54.694Z,9.60
2022-08-17T03:23:24.139Z,9.33
2022-08-17T03:25:53.633Z,11.47
2022-08-17T03:28:21.241Z,10.97
2022-08-17T03:30:48.120Z,8.27
2022-08-17T03:33:16.797Z,9.30
2022-08-17T03:35:44.100Z,13.87
2022-08-17T03:38:12.742Z,9.57
2022-08-17T03:40:57.225Z,8.73
2022-08-17T03:43:27.914Z,10.20
2022-08-17T03:46:27.190Z,8.40
2022-08-17T03:49:14.492Z,9.63
2022-08-17T03:52:00.033Z,7.80
2022-08-17T03:54:45.421Z,9.07
2022-08-17T03:57:12.559Z,8.23
2022-08-17T03:59:40.944Z,11.50
2022-08-17T04:02:19.908Z,10.23
2022-08-17T04:04:50.505Z,11.53
2022-08-17T04:07:18.453Z,8.33
2022-08-17T04:09:45.147Z,11.30
2022-08-17T04:12:14.479Z,9.43
2022-08-17T04:14:51.712Z,10.67
2022-08-17T04:17:21.590Z,9.10
2022-08-17T04:19:48.147Z,8.60
2022-08-17T04:22:33.409Z,8.20
2022-08-17T04:25:07.236Z,9.63
2022-08-17T04:27:33.888Z,10.53
2022-08-17T04:30:01.062Z,10.63
2022-08-17T04:33:05.526Z,12.73
2022-08-17T04:35:19.540Z,8.83
2022-08-17T04:37:46.149Z,15.90
2022-08-17T04:40:31.310Z,10.47
2022-08-17T04:43:07.241Z,9.00
2022-08-17T04:45:38.075Z,9.53
2022-08-17T04:48:04.894Z,13.77
2022-08-17T04:50:33.050Z,10.10
2022-08-17T04:52:59.832Z,8.87
2022-08-17T04:55:26.783Z,9.27
2022-08-17T04:57:53.405Z,8.90
2022-08-17T05:00:20.280Z,9.13
2022-08-17T05:02:50.962Z,8.90
2022-08-17T05:05:20.175Z,9.17
2022-08-17T05:07:47.911Z,8.70
2022-08-17T05:10:14.498Z,9.23
2022-08-17T05:12:41.087Z,12.87
2022-08-17T05:15:11.825Z,9.83
2022-08-17T05:17:38.492Z,9.27
2022-08-17T05:20:05.632Z,10.03
2022-08-17T05:22:32.222Z,11.43
2022-08-17T05:24:58.808Z,8.90
2022-08-17T05:27:29.297Z,10.57
2022-08-17T05:30:02.388Z,13.43
2022-08-17T05:32:39.508Z,9.90
2022-08-17T05:35:07.337Z,9.53
2022-08-17T05:37:33.910Z,9.63
2022-08-17T05:40:00.666Z,12.13
2022-08-17T05:42:27.415Z,8.60
2022-08-17T05:44:57.892Z,8.90
2022-08-17T05:47:26.161Z,8.37
2022-08-17T05:49:53.873Z,9.10
2022-08-17T05:52:26.232Z,9.60
2022-08-17T05:55:26.388Z,10.60
2022-08-17T05:58:08.082Z,8.90
2022-08-17T06:00:55.856Z,10.43
2022-08-17T06:03:46.435Z,9.50
2022-08-17T06:06:45.487Z,9.57
2022-08-17T06:09:48.841Z,8.77
2022-08-17T06:12:41.553Z,8.57
2022-08-17T06:15:13.793Z,9.03
2022-08-17T06:17:42.071Z,9.23
2022-08-17T06:20:12.815Z,9.97
2022-08-17T06:22:47.295Z,8.67
2022-08-17T06:25:32.969Z,14.10
2022-08-17T06:28:07.599Z,8.43
2022-08-17T06:30:59.790Z,8.73
2022-08-17T06:33:36.314Z,11.07
2022-08-17T06:36:48.227Z,13.17
2022-08-17T06:39:59.252Z,8.80
2022-08-17T06:43:02.000Z,8.30
2022-08-17T06:45:49.039Z,10.27
2022-08-17T06:48:32.231Z,8.53
2022-08-17T06:51:06.613Z,8.90
2022-08-17T06:53:42.625Z,8.80
2022-08-17T06:56:12.806Z,8.07
2022-08-17T06:58:41.533Z,8.07
2022-08-17T07:01:18.070Z,7.83
2022-08-17T07:04:11.611Z,7.07
2022-08-17T07:06:47.033Z,7.30
2022-08-17T07:09:23.266Z,11.53
2022-08-17T07:11:54.791Z,10.07
2022-08-17T07:14:33.830Z,6.47
2022-08-17T07:17:17.178Z,5.97
2022-08-17T07:19:46.342Z,5.73
2022-08-17T07:22:53.544Z,6.47
2022-08-17T07:25:27.971Z,4.33
2022-08-17T07:27:59.732Z,5.83
2022-08-17T07:30:46.839Z,4.40
2022-08-17T07:33:20.268Z,6.20
2022-08-17T07:35:48.314Z,7.30
2022-08-17T07:38:25.647Z,4.70
2022-08-17T07:41:05.216Z,3.90
2022-08-17T07:43:45.522Z,4.47
2022-08-17T07:46:42.982Z,4.33
2022-08-17T07:49:09.527Z,4.13
2022-08-17T07:51:45.673Z,4.10
2022-08-17T07:54:15.352Z,8.70
2022-08-17T07:56:54.347Z,4.80
2022-08-17T07:59:34.382Z,3.70
2022-08-17T08:02:33.862Z,4.47
2022-08-17T08:05:49.439Z,6.47
2022-08-17T08:08:28.000Z,5.80
2022-08-17T08:11:01.626Z,4.07
2022-08-17T08:13:30.646Z,4.90
2022-08-17T08:16:27.506Z,5.63
2022-08-17T08:18:58.110Z,4.17
2022-08-17T08:21:35.306Z,8.17
2022-08-17T08:24:30.993Z,3.87
2022-08-17T08:27:13.738Z,7.20
2022-08-17T08:30:03.903Z,8.17
2022-08-17T08:33:17.835Z,5.40
2022-08-17T08:37:12.551Z,6.20
2022-08-17T08:39:09.786Z,3.93
2022-08-17T08:41:59.745Z,3.10
2022-08-17T08:45:00.086Z,3.97
2022-08-17T08:48:05.187Z,3.87
2022-08-17T08:51:00.723Z,3.07
2022-08-17T08:53:53.667Z,4.80
2022-08-17T08:56:39.118Z,5.80
2022-08-17T08:59:44.449Z,3.77
2022-08-17T09:02:30.096Z,3.53
2022-08-17T09:05:18.491Z,3.87
2022-08-17T09:08:02.222Z,6.30
2022-08-17T09:10:59.309Z,3.80
2022-08-17T09:13:36.981Z,3.20
2022-08-17T09:16:23.978Z,4.17
2022-08-17T09:19:02.795Z,5.53
2022-08-17T09:21:58.372Z,7.77
2022-08-17T09:24:35.458Z,2.40
2022-08-17T09:27:18.854Z,3.20
2022-08-17T09:29:56.297Z,2.80
2022-08-17T09:32:33.322Z,2.97
2022-08-17T09:35:11.650Z,3.40
2022-08-17T09:38:17.308Z,5.80
2022-08-17T09:40:55.293Z,4.30
2022-08-17T09:43:35.891Z,2.37
2022-08-17T09:46:19.147Z,4.93
2022-08-17T09:48:56.238Z,3.47
2022-08-17T09:51:40.050Z,8.67
2022-08-17T09:54:44.490Z,2.30
2022-08-17T09:57:32.149Z,2.37
2022-08-17T10:00:02.085Z,2.40
2022-08-17T10:03:06.743Z,2.67
2022-08-17T10:05:37.600Z,2.33
2022-08-17T10:08:42.219Z,2.00
2022-08-17T10:11:54.363Z,2.60
2022-08-17T10:14:43.784Z,3.73
2022-08-17T10:17:19.386Z,2.57
2022-08-17T10:20:16.987Z,2.40
2022-08-17T10:23:10.753Z,2.40
2022-08-17T10:26:04.326Z,2.50
2022-08-17T10:28:42.885Z,4.10
2022-08-17T10:34:20.610Z,3.00
2022-08-17T10:37:09.005Z,3.10
2022-08-17T10:39:54.521Z,2.30
2022-08-17T10:42:30.863Z,4.80
2022-08-17T10:45:15.201Z,3.10
2022-08-17T10:48:30.991Z,2.13
2022-08-17T10:51:08.621Z,2.80
2022-08-17T10:53:35.142Z,2.70
2022-08-17T10:56:14.060Z,2.93
2022-08-17T10:58:55.602Z,6.13
2022-08-17T11:01:34.366Z,2.40
2022-08-17T11:04:21.140Z,3.63
2022-08-17T11:06:53.729Z,3.77
2022-08-17T11:09:38.814Z,4.93
2022-08-17T11:12:28.154Z,4.63
2022-08-17T11:15:14.017Z,2.47
2022-08-17T11:18:09.685Z,2.40
2022-08-17T11:20:37.964Z,3.00
2022-08-17T11:23:29.307Z,2.53
2022-08-17T11:26:03.885Z,2.20
2022-08-17T11:28:35.775Z,3.30
2022-08-17T11:31:09.194Z,2.90
2022-08-17T11:33:36.877Z,2.63
2022-08-17T11:36:32.934Z,3.83
2022-08-17T11:39:33.609Z,4.73
2022-08-17T11:42:26.366Z,2.60
2022-08-17T11:44:57.723Z,2.67
2022-08-17T11:48:26.035Z,5.73
2022-08-17T11:51:24.180Z,4.03
2022-08-17T11:54:03.563Z,3.53
2022-08-17T11:56:49.526Z,3.13
2022-08-17T11:59:37.015Z,2.93
2022-08-17T12:02:32.643Z,4.50
2022-08-17T12:05:14.345Z,3.07
2022-08-17T12:07:46.075Z,3.00
2022-08-17T12:10:17.152Z,2.83
2022-08-17T12:12:46.890Z,2.63
2022-08-17T12:15:19.502Z,4.33
2022-08-17T12:17:54.928Z,3.47
2022-08-17T12:20:29.590Z,5.00
2022-08-17T12:23:09.329Z,3.20
2022-08-17T12:25:49.386Z,3.03
2022-08-17T12:28:26.631Z,5.40
2022-08-17T12:30:54.162Z,3.33
2022-08-17T12:33:25.061Z,3.40
2022-08-17T12:36:03.346Z,3.27
2022-08-17T12:38:35.912Z,7.43
2022-08-17T12:41:25.134Z,11.47
2022-08-17T12:44:12.082Z,6.03
2022-08-17T12:47:21.839Z,5.13
2022-08-17T12:49:52.260Z,13.83
2022-08-17T12:52:24.576Z,4.27
2022-08-17T12:55:01.778Z,7.07
2022-08-17T12:57:47.576Z,9.37
2022-08-17T13:00:25.608Z,4.13
2022-08-17T13:02:54.448Z,5.50
2022-08-17T13:05:28.608Z,3.83
2022-08-17T13:07:58.478Z,6.47
2022-08-17T13:10:32.757Z,9.20
2022-08-17T13:13:05.145Z,6.87
2022-08-17T13:15:44.858Z,5.73
2022-08-17T13:18:36.073Z,7.77
2022-08-17T13:21:02.900Z,7.13
2022-08-17T13:23:31.413Z,5.17
2022-08-17T13:26:04.712Z,7.57
2022-08-17T13:28:35.663Z,5.93
2022-08-17T13:31:27.808Z,5.63
2022-08-17T13:34:18.988Z,4.40
2022-08-17T13:36:46.931Z,17.80
2022-08-17T13:39:19.783Z,7.87
2022-08-17T13:41:48.206Z,4.43
2022-08-17T13:44:37.652Z,3.07
2022-08-17T13:47:15.821Z,9.30
2022-08-17T13:49:48.986Z,5.63
2022-08-17T13:52:43.725Z,5.07
2022-08-17T13:55:20.142Z,4.03
2022-08-17T13:57:49.563Z,4.13
2022-08-17T14:00:33.968Z,7.00
2022-08-17T14:03:02.326Z,6.67
2022-08-17T14:05:30.956Z,3.90
2022-08-17T14:08:02.622Z,8.27
2022-08-17T14:10:36.210Z,7.23
2022-08-17T14:13:03.332Z,5.03
2022-08-17T14:15:55.663Z,4.27
2022-08-17T14:18:18.916Z,3.80
2022-08-17T14:21:05.598Z,3.90
2022-08-17T14:23:32.873Z,4.97
2022-08-17T14:25:59.760Z,3.00
2022-08-17T14:28:27.781Z,4.33
2022-08-17T14:30:55.374Z,5.03
2022-08-17T14:33:24.406Z,5.20
2022-08-17T14:35:53.413Z,3.80
2022-08-17T14:38:20.706Z,4.90
2022-08-17T14:40:48.088Z,5.30
2022-08-17T14:43:15.809Z,3.10
2022-08-17T14:45:43.399Z,3.00
2022-08-17T14:48:10.435Z,3.30
2022-08-17T14:50:40.965Z,3.57
2022-08-17T14:53:10.445Z,3.47
2022-08-17T14:55:40.336Z,3.13
2022-08-17T14:58:07.509Z,5.93
2022-08-17T15:00:34.637Z,3.97
2022-08-17T15:03:01.893Z,5.17
2022-08-17T15:05:33.377Z,5.23
2022-08-17T15:08:01.284Z,4.53
2022-08-17T15:10:29.205Z,4.83
2022-08-17T15:12:57.376Z,4.03
2022-08-17T15:15:24.259Z,6.27
2022-08-17T15:17:51.574Z,4.80
2022-08-17T15:20:25.304Z,3.43
2022-08-17T15:22:55.896Z,5.93
2022-08-17T15:25:24.368Z,3.07
2022-08-17T15:27:51.722Z,3.13
2022-08-17T15:30:19.281Z,3.97
2022-08-17T15:32:51.225Z,7.93
2022-08-17T15:35:28.014Z,3.07
2022-08-17T15:38:10.557Z,3.03
2022-08-17T15:40:43.388Z,6.30
2022-08-17T15:43:14.535Z,5.93
2022-08-17T15:45:42.006Z,3.40
2022-08-17T15:48:08.939Z,5.30
2022-08-17T15:50:36.112Z,4.30
2022-08-17T15:53:03.441Z,4.00
2022-08-17T15:55:31.693Z,4.97
2022-08-17T15:57:58.274Z,3.03
2022-08-17T16:00:28.229Z,2.93
2022-08-17T16:03:44.507Z,2.70
2022-08-17T16:05:42.822Z,3.60
2022-08-17T16:08:10.883Z,2.30
2022-08-17T16:10:37.610Z,2.37
2022-08-17T16:13:04.501Z,2.30
2022-08-17T16:15:31.594Z,2.50
2022-08-17T16:17:58.674Z,3.43
2022-08-17T16:20:25.567Z,3.23
2022-08-17T16:22:52.471Z,2.50
2022-08-17T16:25:38.362Z,4.07
2022-08-17T16:28:12.914Z,2.30
2022-08-17T16:30:40.567Z,2.50
2022-08-17T16:33:09.021Z,3.37
2022-08-17T16:35:35.815Z,2.40
2022-08-17T16:38:02.808Z,2.47
2022-08-17T16:40:31.259Z,2.50
2022-08-17T16:43:02.631Z,5.10
2022-08-17T16:45:38.946Z,2.50
2022-08-17T16:48:07.459Z,2.67
2022-08-17T16:50:34.598Z,2.50
2022-08-17T16:53:10.554Z,2.60
2022-08-17T16:55:38.024Z,2.70
2022-08-17T16:58:06.235Z,4.10
2022-08-17T17:00:33.570Z,2.47
2022-08-17T17:03:19.817Z,3.33
2022-08-17T17:06:08.193Z,3.00
2022-08-17T17:08:51.566Z,3.87
2022-08-17T17:11:33.574Z,3.03
2022-08-17T17:14:05.149Z,2.87
2022-08-17T17:16:45.559Z,2.70
2022-08-17T17:19:35.068Z,3.33
2022-08-17T17:22:14.019Z,5.23
2022-08-17T17:25:00.208Z,3.87
2022-08-17T17:27:30.211Z,3.10
2022-08-17T17:29:56.804Z,2.50
2022-08-17T17:32:38.048Z,4.23
2022-08-17T17:35:34.426Z,3.07
2022-08-17T17:38:15.022Z,4.67
2022-08-17T17:40:47.122Z,2.73
2022-08-17T17:43:38.409Z,3.10
2022-08-17T17:46:27.743Z,4.37
2022-08-17T17:48:56.685Z,5.27
2022-08-17T17:52:09.682Z,2.90
2022-08-17T17:54:38.776Z,3.77
2022-08-17T17:57:10.915Z,3.83
2022-08-17T18:00:00.114Z,4.13
2022-08-17T18:03:10.968Z,6.50
2022-08-17T18:06:08.084Z,3.80
2022-08-17T18:08:52.838Z,8.33
2022-08-17T18:12:00.127Z,6.40
2022-08-17T18:15:02.109Z,3.93
2022-08-17T18:17:29.714Z,9.97
2022-08-17T18:19:56.351Z,5.90
2022-08-17T18:22:23.654Z,7.80
2022-08-17T18:24:57.096Z,10.13
2022-08-17T18:27:36.639Z,7.30
2022-08-17T18:30:27.204Z,17.80
2022-08-17T18:32:53.850Z,9.97
2022-08-17T18:35:21.361Z,13.07
2022-08-17T18:37:53.160Z,13.27
2022-08-17T18:40:20.023Z,12.83
2022-08-17T18:43:03.605Z,12.67
2022-08-17T18:45:47.812Z,13.00
2022-08-17T18:48:33.339Z,12.87
2022-08-17T18:51:39.841Z,12.83
2022-08-17T18:54:21.953Z,16.77
2022-08-17T18:56:55.066Z,18.67
2022-08-17T18:59:42.466Z,18.30
2022-08-17T19:02:20.599Z,13.57
2022-08-17T19:05:13.157Z,13.23
2022-08-17T19:07:45.932Z,13.67
2022-08-17T19:10:22.962Z,14.10
2022-08-17T19:13:11.326Z,14.13
2022-08-17T19:16:12.148Z,17.00
2022-08-17T19:18:39.056Z,17.73
2022-08-17T19:21:34.629Z,17.00
2022-08-17T19:24:29.931Z,17.63
2022-08-17T19:27:02.649Z,14.70
2022-08-17T19:29:54.175Z,16.13
2022-08-17T19:32:25.417Z,16.00
2022-08-17T19:34:52.709Z,16.07
2022-08-17T19:37:39.172Z,17.63
2022-08-17T19:40:51.835Z,19.57
2022-08-17T19:43:48.030Z,15.70
2022-08-17T19:46:14.619Z,17.63
2022-08-17T19:48:56.598Z,19.90
2022-08-17T19:51:44.904Z,16.13
2022-08-17T19:54:30.943Z,18.23
2022-08-17T19:57:16.813Z,26.57
2022-08-17T19:59:49.837Z,16.83
2022-08-17T20:02:35.565Z,21.33
2022-08-17T20:05:07.124Z,15.60
2022-08-17T20:07:45.849Z,15.27
2022-08-17T20:10:25.254Z,14.50
2022-08-17T20:12:53.498Z,20.83
2022-08-17T20:15:29.533Z,20.00
2022-08-17T20:17:59.678Z,25.73
2022-08-17T20:20:59.655Z,21.37
2022-08-17T20:23:29.552Z,15.90
2022-08-17T20:26:19.556Z,16.37
2022-08-17T20:29:07.483Z,18.00
2022-08-17T20:31:55.092Z,15.60
2022-08-17T20:34:33.458Z,19.23
2022-08-17T20:37:15.554Z,14.93
2022-08-17T20:39:49.972Z,15.60
2022-08-17T20:42:22.469Z,16.47
2022-08-17T20:44:52.577Z,16.17
2022-08-17T20:47:27.038Z,18.73
2022-08-17T20:50:08.189Z,21.23
2022-08-17T20:52:48.241Z,21.73
2022-08-17T20:55:51.741Z,21.03
2022-08-17T20:58:24.685Z,27.73
2022-08-17T21:00:57.393Z,17.00
2022-08-17T21:03:24.096Z,16.23
2022-08-17T21:06:15.328Z,29.90
2022-08-17T21:09:16.124Z,26.63
2022-08-17T21:12:02.788Z,19.23
2022-08-17T21:14:59.887Z,28.30
2022-08-17T21:17:40.085Z,21.27
2022-08-17T21:20:28.033Z,31.97
2022-08-17T21:23:18.419Z,26.57
2022-08-17T21:26:17.269Z,30.60
2022-08-17T21:29:29.505Z,39.07
2022-08-17T21:31:59.314Z,33.33
2022-08-17T21:34:38.737Z,29.23
2022-08-17T21:37:20.504Z,26.83
2022-08-17T21:40:00.675Z,20.90
2022-08-17T21:42:44.056Z,31.80
2022-08-17T21:45:31.873Z,22.80
2022-08-17T21:48:17.393Z,21.67
2022-08-17T21:50:57.124Z,23.13
2022-08-17T21:53:43.023Z,24.70
2022-08-17T21:56:12.514Z,21.33
2022-08-17T21:58:44.472Z,26.80
2022-08-17T22:02:10.383Z,26.90
2022-08-17T22:04:40.004Z,22.03
2022-08-17T22:07:11.732Z,24.00
2022-08-17T22:09:47.315Z,28.67
2022-08-17T22:12:18.963Z,26.53
2022-08-17T22:14:55.842Z,19.40
2022-08-17T22:17:34.255Z,23.90
2022-08-17T22:20:20.759Z,26.13
2022-08-17T22:23:09.108Z,30.67
2022-08-17T22:25:56.090Z,28.40
2022-08-17T22:28:38.208Z,24.93
2022-08-17T22:31:07.882Z,28.83
2022-08-17T22:33:39.512Z,28.57
2022-08-17T22:36:25.386Z,27.57
2022-08-17T22:38:55.453Z,22.80
2022-08-17T22:41:22.218Z,24.17
2022-08-17T22:43:49.069Z,27.63
2022-08-17T22:46:22.381Z,29.03
2022-08-17T22:48:53.559Z,25.97
2022-08-17T22:51:28.268Z,27.67
2022-08-17T22:54:19.776Z,26.17
2022-08-17T22:57:18.921Z,26.33
2022-08-17T22:59:49.448Z,25.63
2022-08-17T23:02:19.367Z,27.70
2022-08-17T23:05:09.519Z,32.23
2022-08-17T23:07:36.709Z,28.57
2022-08-17T23:10:06.353Z,34.70
2022-08-17T23:12:37.970Z,35.03
2022-08-17T23:15:10.576Z,33.67
2022-08-17T23:17:38.139Z,31.90
2022-08-17T23:20:08.381Z,32.10
2022-08-17T23:22:37.911Z,36.27
2022-08-17T23:25:27.172Z,25.83
2022-08-17T23:27:54.431Z,28.87
2022-08-17T23:30:27.179Z,31.37
2022-08-17T23:32:55.750Z,28.17
2022-08-17T23:35:39.966Z,26.73
2022-08-17T23:38:08.877Z,29.07
2022-08-17T23:40:35.519Z,31.60
2022-08-17T23:43:09.777Z,32.77
2022-08-17T23:45:44.238Z,37.53
2022-08-17T23:48:11.008Z,34.43
2022-08-17T23:50:38.187Z,27.53
2022-08-17T23:53:06.232Z,31.10
2022-08-17T23:55:34.584Z,33.50
2022-08-17T23:58:05.326Z,32.00
